Terminal Aerodrome Forecast
Issued by NWS

Home | Current Version | Previous Version | Text Only | Print | Product List | Glossary On
Versions: 1 2 3 4 5 6 7 8 9 10 11 12 13
205
FTUS45 KRIW 181120
TAFJAC
TAF
KJAC 181120Z 1812/1912 VRB03KT P6SM VCFG SKC
     FM181700 VRB03KT P6SM BKN250
     FM190300 VRB05KT P6SM BKN050
      AMD LTD TO CLD VIS AND WIND=

USA.gov is the U.S. government's official web portal to all federal, state and local government web resources and services.